Terminal Aerodrome Forecast
Issued by NWS Sioux Falls, SD

Home | Current Version | Previous Version | Text Only | Print | Product List | Glossary On
Versions: 1 2 3 4 5 6 7 8 9 10 11 12 13 14 15
000
FTUS43 KFSD 210533
TAFHON
TAF
KHON 210533Z 2106/2206 16009KT 1SM BR OVC003
     FM211000 17005KT 2SM BR OVC003
     FM211500 29006KT 3SM BR OVC006
     FM211900 29006KT 6SM BR OVC010
     FM212200 29006KT P6SM OVC025
     FM220000 30005KT P6SM OVC015=

USA.gov is the U.S. government's official web portal to all federal, state and local government web resources and services.